sensor_id;sensor_type;location;lat;lon;timestamp;pressure;altitude;pressure_sealevel;temperature;humidity
9091;BME280;4581;42.416;25.598;2022-08-19T00:02:20;97922.97;;;26.12;61.82
9091;BME280;4581;42.416;25.598;2022-08-19T00:04:46;97913.97;;;26.01;61.52
9091;BME280;4581;42.416;25.598;2022-08-19T00:07:16;97921.16;;;26.02;61.35
9091;BME280;4581;42.416;25.598;2022-08-19T00:09:43;97904.66;;;25.92;61.35
9091;BME280;4581;42.416;25.598;2022-08-19T00:12:10;97910.41;;;25.96;61.78
9091;BME280;4581;42.416;25.598;2022-08-19T00:14:37;97926.91;;;26.06;62.08
9091;BME280;4581;42.416;25.598;2022-08-19T00:17:06;97933.88;;;26.03;62.02
9091;BME280;4581;42.416;25.598;2022-08-19T00:19:35;97931.97;;;25.99;62.19
9091;BME280;4581;42.416;25.598;2022-08-19T00:22:03;97911.34;;;25.86;62.66
9091;BME280;4581;42.416;25.598;2022-08-19T00:24:31;97894.84;;;25.76;63.05
9091;BME280;4581;42.416;25.598;2022-08-19T00:26:59;97899.81;;;25.79;62.71
9091;BME280;4581;42.416;25.598;2022-08-19T00:29:48;97897.09;;;25.74;63.59
9091;BME280;4581;42.416;25.598;2022-08-19T00:32:18;97899.00;;;25.79;64.77
9091;BME280;4581;42.416;25.598;2022-08-19T00:34:45;97890.25;;;25.67;65.17
9091;BME280;4581;42.416;25.598;2022-08-19T00:37:12;97890.84;;;25.64;64.76
9091;BME280;4581;42.416;25.598;2022-08-19T00:39:39;97920.59;;;25.72;65.54
9091;BME280;4581;42.416;25.598;2022-08-19T00:42:09;97899.16;;;25.58;65.37
9091;BME280;4581;42.416;25.598;2022-08-19T00:44:36;97895.84;;;25.56;65.42
9091;BME280;4581;42.416;25.598;2022-08-19T00:47:03;97896.13;;;25.50;64.83
9091;BME280;4581;42.416;25.598;2022-08-19T00:49:40;97895.03;;;25.51;64.19
9091;BME280;4581;42.416;25.598;2022-08-19T00:52:12;97903.31;;;25.51;64.63
9091;BME280;4581;42.416;25.598;2022-08-19T00:54:41;97899.47;;;25.47;64.67
9091;BME280;4581;42.416;25.598;2022-08-19T00:57:15;97917.66;;;25.58;64.86
9091;BME280;4581;42.416;25.598;2022-08-19T00:59:46;97917.09;;;25.56;64.93
9091;BME280;4581;42.416;25.598;2022-08-19T01:02:27;97922.91;;;25.49;65.48
9091;BME280;4581;42.416;25.598;2022-08-19T01:04:55;97897.38;;;25.29;65.57
9091;BME280;4581;42.416;25.598;2022-08-19T01:07:22;97905.66;;;25.29;65.50
9091;BME280;4581;42.416;25.598;2022-08-19T01:09:49;97909.00;;;25.21;66.77
9091;BME280;4581;42.416;25.598;2022-08-19T01:12:16;97910.41;;;25.18;66.67
9091;BME280;4581;42.416;25.598;2022-08-19T01:14:47;97918.09;;;25.26;67.35
9091;BME280;4581;42.416;25.598;2022-08-19T01:17:15;97898.81;;;25.21;66.34
9091;BME280;4581;42.416;25.598;2022-08-19T01:19:43;97915.38;;;25.21;67.44
9091;BME280;4581;42.416;25.598;2022-08-19T01:22:35;97918.44;;;25.14;67.37
9091;BME280;4581;42.416;25.598;2022-08-19T01:25:06;97909.09;;;25.05;67.92
9091;BME280;4581;42.416;25.598;2022-08-19T01:27:43;97914.03;;;25.08;67.61
9091;BME280;4581;42.416;25.598;2022-08-19T01:30:28;97918.72;;;25.13;67.78
9091;BME280;4581;42.416;25.598;2022-08-19T01:32:58;97922.03;;;25.15;68.17
9091;BME280;4581;42.416;25.598;2022-08-19T01:35:29;97912.63;;;25.16;68.22
9091;BME280;4581;42.416;25.598;2022-08-19T01:38:01;97906.06;;;25.07;68.17
9091;BME280;4581;42.416;25.598;2022-08-19T01:40:31;97918.97;;;25.16;67.42
9091;BME280;4581;42.416;25.598;2022-08-19T01:42:59;97908.84;;;25.07;67.72
9091;BME280;4581;42.416;25.598;2022-08-19T01:45:28;97924.50;;;25.16;68.12
9091;BME280;4581;42.416;25.598;2022-08-19T01:47:56;97918.44;;;25.14;67.59
9091;BME280;4581;42.416;25.598;2022-08-19T01:50:29;97903.59;;;25.00;68.27
9091;BME280;4581;42.416;25.598;2022-08-19T01:52:55;97922.31;;;25.08;68.30
9091;BME280;4581;42.416;25.598;2022-08-19T01:55:29;97914.09;;;25.03;68.42
9091;BME280;4581;42.416;25.598;2022-08-19T01:58:01;97919.56;;;25.08;68.25
9091;BME280;4581;42.416;25.598;2022-08-19T02:00:31;97895.41;;;24.90;67.47
9091;BME280;4581;42.416;25.598;2022-08-19T02:02:58;97900.34;;;24.88;67.98
9091;BME280;4581;42.416;25.598;2022-08-19T02:05:24;97917.41;;;25.00;68.63
9091;BME280;4581;42.416;25.598;2022-08-19T02:07:51;97911.38;;;24.88;68.94
9091;BME280;4581;42.416;25.598;2022-08-19T02:10:21;97919.38;;;24.95;70.25
9091;BME280;4581;42.416;25.598;2022-08-19T02:12:49;97923.25;;;24.89;70.04
9091;BME280;4581;42.416;25.598;2022-08-19T02:15:17;97884.44;;;24.60;71.13
9091;BME280;4581;42.416;25.598;2022-08-19T02:17:46;97888.91;;;24.51;70.31
9091;BME280;4581;42.416;25.598;2022-08-19T02:20:13;97928.25;;;24.71;71.46
9091;BME280;4581;42.416;25.598;2022-08-19T02:22:41;97929.63;;;24.69;72.17
9091;BME280;4581;42.416;25.598;2022-08-19T02:25:10;97921.69;;;24.52;70.76
9091;BME280;4581;42.416;25.598;2022-08-19T02:27:42;97897.50;;;24.39;71.67
9091;BME280;4581;42.416;25.598;2022-08-19T02:30:16;97935.50;;;24.47;72.21
9091;BME280;4581;42.416;25.598;2022-08-19T02:32:45;97940.72;;;24.54;73.04
9091;BME280;4581;42.416;25.598;2022-08-19T02:35:14;97934.94;;;24.40;73.12
9091;BME280;4581;42.416;25.598;2022-08-19T02:37:41;97939.09;;;24.38;73.41
9091;BME280;4581;42.416;25.598;2022-08-19T02:40:30;97924.22;;;24.29;73.76
9091;BME280;4581;42.416;25.598;2022-08-19T02:43:01;97925.91;;;24.24;73.69
9091;BME280;4581;42.416;25.598;2022-08-19T02:45:33;97922.03;;;24.31;74.58
9091;BME280;4581;42.416;25.598;2022-08-19T02:48:01;97928.09;;;24.28;74.25
9091;BME280;4581;42.416;25.598;2022-08-19T02:50:39;97899.72;;;24.07;74.08
9091;BME280;4581;42.416;25.598;2022-08-19T02:53:18;97934.16;;;24.19;74.22
9091;BME280;4581;42.416;25.598;2022-08-19T02:55:46;97947.94;;;24.24;74.24
9091;BME280;4581;42.416;25.598;2022-08-19T02:58:14;97951.25;;;24.21;74.89
9091;BME280;4581;42.416;25.598;2022-08-19T03:00:46;97944.34;;;24.34;73.62
9091;BME280;4581;42.416;25.598;2022-08-19T03:03:13;97925.91;;;24.14;74.07
9091;BME280;4581;42.416;25.598;2022-08-19T03:05:43;97933.06;;;24.10;74.25
9091;BME280;4581;42.416;25.598;2022-08-19T03:08:18;97921.78;;;24.07;75.20
9091;BME280;4581;42.416;25.598;2022-08-19T03:10:47;97951.81;;;24.18;74.52
9091;BME280;4581;42.416;25.598;2022-08-19T03:13:17;97958.13;;;24.14;75.49
9091;BME280;4581;42.416;25.598;2022-08-19T03:15:46;97953.44;;;24.09;75.20
9091;BME280;4581;42.416;25.598;2022-08-19T03:18:15;97940.22;;;24.06;75.07
9091;BME280;4581;42.416;25.598;2022-08-19T03:20:49;97944.91;;;24.01;75.06
9091;BME280;4581;42.416;25.598;2022-08-19T03:23:20;97921.78;;;23.87;74.25
9091;BME280;4581;42.416;25.598;2022-08-19T03:25:49;97960.88;;;23.99;74.67
9091;BME280;4581;42.416;25.598;2022-08-19T03:28:39;97946.28;;;23.83;76.01
9091;BME280;4581;42.416;25.598;2022-08-19T03:31:09;97965.00;;;23.96;76.32
9091;BME280;4581;42.416;25.598;2022-08-19T03:33:58;97949.31;;;23.87;75.91
9091;BME280;4581;42.416;25.598;2022-08-19T03:36:26;97975.19;;;24.01;74.93
9091;BME280;4581;42.416;25.598;2022-08-19T03:38:58;97974.63;;;24.04;74.59
9091;BME280;4581;42.416;25.598;2022-08-19T03:41:29;97960.59;;;24.05;74.68
9091;BME280;4581;42.416;25.598;2022-08-19T03:44:10;97949.00;;;24.03;73.11
9091;BME280;4581;42.416;25.598;2022-08-19T03:46:43;97940.22;;;23.91;73.25
9091;BME280;4581;42.416;25.598;2022-08-19T03:49:10;97969.97;;;24.09;73.80
9091;BME280;4581;42.416;25.598;2022-08-19T03:51:42;97982.09;;;24.23;74.01
9091;BME280;4581;42.416;25.598;2022-08-19T03:54:12;97984.03;;;24.18;74.33
9091;BME280;4581;42.416;25.598;2022-08-19T03:56:41;97983.19;;;24.28;73.43
9091;BME280;4581;42.416;25.598;2022-08-19T03:59:14;97968.88;;;24.20;73.32
9091;BME280;4581;42.416;25.598;2022-08-19T04:01:41;97966.13;;;24.10;74.86
9091;BME280;4581;42.416;25.598;2022-08-19T04:04:09;97978.53;;;24.18;74.91
9091;BME280;4581;42.416;25.598;2022-08-19T04:06:38;97974.09;;;24.12;73.53
9091;BME280;4581;42.416;25.598;2022-08-19T04:09:11;97992.59;;;24.27;73.83
9091;BME280;4581;42.416;25.598;2022-08-19T04:11:46;97987.59;;;24.23;74.83
9091;BME280;4581;42.416;25.598;2022-08-19T04:14:15;97961.72;;;24.14;75.55
9091;BME280;4581;42.416;25.598;2022-08-19T04:16:43;97966.69;;;24.17;74.80
9091;BME280;4581;42.416;25.598;2022-08-19T04:19:11;97961.44;;;24.11;75.16
9091;BME280;4581;42.416;25.598;2022-08-19T04:21:39;97995.31;;;24.42;75.27
9091;BME280;4581;42.416;25.598;2022-08-19T04:24:06;97993.41;;;24.42;76.46
9091;BME280;4581;42.416;25.598;2022-08-19T04:26:36;97989.25;;;24.50;75.28
9091;BME280;4581;42.416;25.598;2022-08-19T04:29:07;98000.25;;;24.60;74.71
9091;BME280;4581;42.416;25.598;2022-08-19T04:31:38;98011.25;;;24.65;74.73
9091;BME280;4581;42.416;25.598;2022-08-19T04:34:07;97990.06;;;24.55;75.24
9091;BME280;4581;42.416;25.598;2022-08-19T04:36:39;98004.66;;;24.71;75.54
9091;BME280;4581;42.416;25.598;2022-08-19T04:39:20;98002.69;;;24.77;76.38
9091;BME280;4581;42.416;25.598;2022-08-19T04:41:47;97996.06;;;24.67;76.31
9091;BME280;4581;42.416;25.598;2022-08-19T04:44:55;98010.69;;;24.88;72.99
9091;BME280;4581;42.416;25.598;2022-08-19T04:47:22;98001.31;;;24.89;74.18
9091;BME280;4581;42.416;25.598;2022-08-19T04:50:10;97984.22;;;24.87;72.54
9091;BME280;4581;42.416;25.598;2022-08-19T04:52:39;97977.03;;;24.76;73.35
9091;BME280;4581;42.416;25.598;2022-08-19T04:55:12;98029.66;;;25.05;72.47
9091;BME280;4581;42.416;25.598;2022-08-19T04:57:39;98009.59;;;24.89;72.33
9091;BME280;4581;42.416;25.598;2022-08-19T05:00:08;98025.03;;;24.95;72.73
9091;BME280;4581;42.416;25.598;2022-08-19T05:02:37;97997.47;;;24.85;72.24
9091;BME280;4581;42.416;25.598;2022-08-19T05:05:04;98030.22;;;25.07;72.39
9091;BME280;4581;42.416;25.598;2022-08-19T05:07:33;98005.16;;;24.98;71.81
9091;BME280;4581;42.416;25.598;2022-08-19T05:10:00;98008.16;;;25.07;70.69
9091;BME280;4581;42.416;25.598;2022-08-19T05:12:27;97993.53;;;25.01;72.83
9091;BME280;4581;42.416;25.598;2022-08-19T05:14:56;98031.75;;;25.43;71.92
9091;BME280;4581;42.416;25.598;2022-08-19T05:17:26;98032.50;;;25.59;71.84
9091;BME280;4581;42.416;25.598;2022-08-19T05:20:05;98032.16;;;25.76;71.93
9091;BME280;4581;42.416;25.598;2022-08-19T05:22:50;98012.47;;;25.87;70.55
9091;BME280;4581;42.416;25.598;2022-08-19T05:25:20;98002.94;;;26.03;70.61
9091;BME280;4581;42.416;25.598;2022-08-19T05:27:48;98026.44;;;26.40;69.16
9091;BME280;4581;42.416;25.598;2022-08-19T05:30:16;98034.44;;;26.70;63.61
9091;BME280;4581;42.416;25.598;2022-08-19T05:32:44;98007.22;;;26.82;65.09
9091;BME280;4581;42.416;25.598;2022-08-19T05:35:11;98008.59;;;27.09;62.83
9091;BME280;4581;42.416;25.598;2022-08-19T05:37:38;98022.44;;;27.56;60.97
9091;BME280;4581;42.416;25.598;2022-08-19T05:40:07;98036.28;;;27.93;59.17
9091;BME280;4581;42.416;25.598;2022-08-19T05:42:36;98033.59;;;28.26;56.78
9091;BME280;4581;42.416;25.598;2022-08-19T05:45:03;98009.31;;;28.36;56.96
9091;BME280;4581;42.416;25.598;2022-08-19T05:47:32;98022.34;;;28.68;53.48
9091;BME280;4581;42.416;25.598;2022-08-19T05:49:59;98055.56;;;29.19;55.58
9091;BME280;4581;42.416;25.598;2022-08-19T05:52:30;98023.38;;;29.32;52.64
9091;BME280;4581;42.416;25.598;2022-08-19T05:54:57;98031.47;;;29.69;51.91
9091;BME280;4581;42.416;25.598;2022-08-19T05:57:26;98046.50;;;30.18;52.43
9091;BME280;4581;42.416;25.598;2022-08-19T05:59:58;98044.88;;;30.39;50.88
9091;BME280;4581;42.416;25.598;2022-08-19T06:02:29;98047.16;;;30.37;49.36
9091;BME280;4581;42.416;25.598;2022-08-19T06:04:57;98029.22;;;30.43;49.96
9091;BME280;4581;42.416;25.598;2022-08-19T06:07:24;98041.09;;;30.80;49.92
9091;BME280;4581;42.416;25.598;2022-08-19T06:09:51;98050.47;;;31.15;48.15
9091;BME280;4581;42.416;25.598;2022-08-19T06:12:27;98055.38;;;31.18;48.70
9091;BME280;4581;42.416;25.598;2022-08-19T06:14:59;98064.97;;;31.34;49.52
9091;BME280;4581;42.416;25.598;2022-08-19T06:17:28;98042.16;;;31.23;48.62
9091;BME280;4581;42.416;25.598;2022-08-19T06:19:58;98042.19;;;31.32;48.96
9091;BME280;4581;42.416;25.598;2022-08-19T06:22:26;98042.09;;;31.54;48.31
9091;BME280;4581;42.416;25.598;2022-08-19T06:24:54;98060.88;;;31.79;45.43
9091;BME280;4581;42.416;25.598;2022-08-19T06:27:21;98045.63;;;31.77;46.94
9091;BME280;4581;42.416;25.598;2022-08-19T06:29:51;98075.81;;;31.83;47.32
9091;BME280;4581;42.416;25.598;2022-08-19T06:32:18;98068.56;;;31.74;51.40
9091;BME280;4581;42.416;25.598;2022-08-19T06:34:46;98052.84;;;31.38;46.50
9091;BME280;4581;42.416;25.598;2022-08-19T06:37:15;98072.50;;;31.64;47.94
9091;BME280;4581;42.416;25.598;2022-08-19T06:39:43;98048.50;;;31.54;48.58
9091;BME280;4581;42.416;25.598;2022-08-19T06:42:12;98051.75;;;31.48;51.35
9091;BME280;4581;42.416;25.598;2022-08-19T06:44:43;98033.66;;;31.28;48.20
9091;BME280;4581;42.416;25.598;2022-08-19T06:47:19;98047.81;;;31.49;47.90
9091;BME280;4581;42.416;25.598;2022-08-19T06:49:58;98073.16;;;31.61;47.59
9091;BME280;4581;42.416;25.598;2022-08-19T06:52:45;98057.84;;;30.66;47.57
9091;BME280;4581;42.416;25.598;2022-08-19T06:55:14;98068.81;;;30.62;49.32
9091;BME280;4581;42.416;25.598;2022-08-19T06:57:41;98052.44;;;30.61;53.35
9091;BME280;4581;42.416;25.598;2022-08-19T07:00:09;98074.75;;;30.70;53.43
9091;BME280;4581;42.416;25.598;2022-08-19T07:02:43;98081.56;;;30.86;47.77
9091;BME280;4581;42.416;25.598;2022-08-19T07:05:21;98043.16;;;30.30;51.01
9091;BME280;4581;42.416;25.598;2022-08-19T07:07:48;98062.28;;;30.67;50.40
9091;BME280;4581;42.416;25.598;2022-08-19T07:10:17;98063.06;;;30.90;51.42
9091;BME280;4581;42.416;25.598;2022-08-19T07:12:44;98060.69;;;30.75;50.06
9091;BME280;4581;42.416;25.598;2022-08-19T07:15:11;98034.88;;;31.05;48.90
9091;BME280;4581;42.416;25.598;2022-08-19T07:17:38;98033.88;;;31.01;46.82
9091;BME280;4581;42.416;25.598;2022-08-19T07:20:08;98063.91;;;31.13;50.58
9091;BME280;4581;42.416;25.598;2022-08-19T07:22:55;98068.09;;;31.32;45.51
9091;BME280;4581;42.416;25.598;2022-08-19T07:25:22;98058.03;;;31.53;48.85
9091;BME280;4581;42.416;25.598;2022-08-19T07:27:57;98055.91;;;31.59;44.84
9091;BME280;4581;42.416;25.598;2022-08-19T07:30:27;98040.50;;;31.70;45.32
9091;BME280;4581;42.416;25.598;2022-08-19T07:32:54;98071.47;;;32.17;46.71
9091;BME280;4581;42.416;25.598;2022-08-19T07:35:23;98056.03;;;32.19;45.21
9091;BME280;4581;42.416;25.598;2022-08-19T07:37:50;98045.34;;;32.04;45.49
9091;BME280;4581;42.416;25.598;2022-08-19T07:40:16;98061.78;;;32.48;44.18
9091;BME280;4581;42.416;25.598;2022-08-19T07:42:43;98049.94;;;32.60;41.93
9091;BME280;4581;42.416;25.598;2022-08-19T07:45:10;98044.88;;;32.54;42.94
9091;BME280;4581;42.416;25.598;2022-08-19T07:47:38;98053.06;;;32.16;44.39
9091;BME280;4581;42.416;25.598;2022-08-19T07:50:23;98061.78;;;32.31;48.91
9091;BME280;4581;42.416;25.598;2022-08-19T07:52:50;98058.66;;;32.24;47.02
9091;BME280;4581;42.416;25.598;2022-08-19T07:55:21;98067.34;;;32.14;42.90
9091;BME280;4581;42.416;25.598;2022-08-19T07:58:09;98052.25;;;32.24;47.51
9091;BME280;4581;42.416;25.598;2022-08-19T08:00:36;98023.13;;;31.65;43.21
9091;BME280;4581;42.416;25.598;2022-08-19T08:03:04;98040.88;;;32.03;46.35
9091;BME280;4581;42.416;25.598;2022-08-19T08:05:32;98038.00;;;32.17;41.40
9091;BME280;4581;42.416;25.598;2022-08-19T08:08:17;98017.31;;;32.18;43.03
9091;BME280;4581;42.416;25.598;2022-08-19T08:11:16;98051.75;;;32.73;45.05
9091;BME280;4581;42.416;25.598;2022-08-19T08:13:46;98044.66;;;32.84;41.78
9091;BME280;4581;42.416;25.598;2022-08-19T08:16:29;98027.38;;;32.91;39.61
9091;BME280;4581;42.416;25.598;2022-08-19T08:19:07;98032.66;;;32.84;41.56
9091;BME280;4581;42.416;25.598;2022-08-19T08:21:54;98046.31;;;32.85;43.58
9091;BME280;4581;42.416;25.598;2022-08-19T08:24:23;98049.69;;;33.08;42.45
9091;BME280;4581;42.416;25.598;2022-08-19T08:26:56;98015.00;;;33.09;40.69
9091;BME280;4581;42.416;25.598;2022-08-19T08:29:30;98043.63;;;33.53;41.76
9091;BME280;4581;42.416;25.598;2022-08-19T08:32:00;98011.06;;;33.48;39.79
9091;BME280;4581;42.416;25.598;2022-08-19T08:34:28;98034.94;;;33.75;38.59
9091;BME280;4581;42.416;25.598;2022-08-19T08:36:56;98032.72;;;33.89;38.60
9091;BME280;4581;42.416;25.598;2022-08-19T08:39:23;98036.88;;;33.54;39.98
9091;BME280;4581;42.416;25.598;2022-08-19T08:42:17;98047.97;;;33.71;40.83
9091;BME280;4581;42.416;25.598;2022-08-19T08:45:10;98049.75;;;33.75;38.17
9091;BME280;4581;42.416;25.598;2022-08-19T08:48:17;98038.19;;;33.48;38.47
9091;BME280;4581;42.416;25.598;2022-08-19T08:50:50;98019.09;;;33.58;41.69
9091;BME280;4581;42.416;25.598;2022-08-19T08:53:34;98030.00;;;33.42;37.52
9091;BME280;4581;42.416;25.598;2022-08-19T08:56:09;98035.44;;;33.01;39.68
9091;BME280;4581;42.416;25.598;2022-08-19T08:58:57;98029.06;;;32.75;41.71
9091;BME280;4581;42.416;25.598;2022-08-19T09:01:25;98016.06;;;32.87;40.07
9091;BME280;4581;42.416;25.598;2022-08-19T09:03:56;98007.81;;;33.00;40.28
9091;BME280;4581;42.416;25.598;2022-08-19T09:07:09;98028.38;;;33.42;37.81
9091;BME280;4581;42.416;25.598;2022-08-19T09:09:34;98024.00;;;33.23;43.75
9091;BME280;4581;42.416;25.598;2022-08-19T09:15:05;98001.38;;;33.08;39.58
9091;BME280;4581;42.416;25.598;2022-08-19T09:17:32;97999.47;;;33.37;38.91
9091;BME280;4581;42.416;25.598;2022-08-19T09:20:18;98006.50;;;33.73;41.15
9091;BME280;4581;42.416;25.598;2022-08-19T09:22:45;97994.16;;;33.95;38.26
9091;BME280;4581;42.416;25.598;2022-08-19T09:25:16;98025.72;;;34.45;37.91
9091;BME280;4581;42.416;25.598;2022-08-19T09:27:52;98019.09;;;34.50;37.57
9091;BME280;4581;42.416;25.598;2022-08-19T09:30:34;98011.00;;;34.69;34.51
9091;BME280;4581;42.416;25.598;2022-08-19T09:33:12;98009.66;;;34.99;32.27
9091;BME280;4581;42.416;25.598;2022-08-19T09:35:40;97997.25;;;35.33;35.38
9091;BME280;4581;42.416;25.598;2022-08-19T09:38:18;97990.09;;;35.60;32.39
9091;BME280;4581;42.416;25.598;2022-08-19T09:40:46;98006.19;;;35.99;31.42
9091;BME280;4581;42.416;25.598;2022-08-19T09:43:13;97988.19;;;36.00;31.71
9091;BME280;4581;42.416;25.598;2022-08-19T09:46:00;98000.94;;;36.10;30.75
9091;BME280;4581;42.416;25.598;2022-08-19T09:48:28;97999.97;;;36.18;29.99
9091;BME280;4581;42.416;25.598;2022-08-19T09:51:02;98001.31;;;36.64;30.46
9091;BME280;4581;42.416;25.598;2022-08-19T09:53:30;98004.03;;;36.61;32.65
9091;BME280;4581;42.416;25.598;2022-08-19T09:56:03;97974.00;;;36.09;31.37
9091;BME280;4581;42.416;25.598;2022-08-19T09:58:31;97965.06;;;35.79;31.81
9091;BME280;4581;42.416;25.598;2022-08-19T10:01:00;97995.59;;;35.81;32.10
9091;BME280;4581;42.416;25.598;2022-08-19T10:03:29;97985.03;;;36.02;32.43
9091;BME280;4581;42.416;25.598;2022-08-19T10:05:57;97992.00;;;36.48;29.81
9091;BME280;4581;42.416;25.598;2022-08-19T10:08:33;97999.88;;;36.42;29.56
9091;BME280;4581;42.416;25.598;2022-08-19T10:11:04;97959.69;;;36.26;29.96
9091;BME280;4581;42.416;25.598;2022-08-19T10:13:51;97984.69;;;36.31;28.66
9091;BME280;4581;42.416;25.598;2022-08-19T10:16:20;98004.94;;;36.37;28.76
9091;BME280;4581;42.416;25.598;2022-08-19T10:18:56;97987.25;;;35.96;30.30
9091;BME280;4581;42.416;25.598;2022-08-19T10:21:44;97988.38;;;36.07;29.77
9091;BME280;4581;42.416;25.598;2022-08-19T10:24:14;97973.84;;;36.30;29.10
9091;BME280;4581;42.416;25.598;2022-08-19T10:26:43;97942.16;;;36.45;28.75
9091;BME280;4581;42.416;25.598;2022-08-19T10:29:23;97964.00;;;36.79;29.73
9091;BME280;4581;42.416;25.598;2022-08-19T10:32:04;97956.19;;;36.73;29.16
9091;BME280;4581;42.416;25.598;2022-08-19T10:34:54;97956.88;;;36.54;30.50
9091;BME280;4581;42.416;25.598;2022-08-19T10:37:23;97965.53;;;36.77;28.77
9091;BME280;4581;42.416;25.598;2022-08-19T10:39:57;97970.72;;;36.90;29.14
9091;BME280;4581;42.416;25.598;2022-08-19T10:42:24;97945.78;;;36.89;29.30
9091;BME280;4581;42.416;25.598;2022-08-19T10:44:51;97954.59;;;37.34;28.98
9091;BME280;4581;42.416;25.598;2022-08-19T10:47:20;97964.09;;;37.45;27.42
9091;BME280;4581;42.416;25.598;2022-08-19T10:49:52;97977.19;;;37.88;26.56
9091;BME280;4581;42.416;25.598;2022-08-19T10:52:40;97945.88;;;37.39;28.15
9091;BME280;4581;42.416;25.598;2022-08-19T10:55:19;97958.00;;;37.75;26.84
9091;BME280;4581;42.416;25.598;2022-08-19T10:58:13;97957.13;;;37.55;27.43
9091;BME280;4581;42.416;25.598;2022-08-19T11:00:42;97936.78;;;37.46;28.19
9091;BME280;4581;42.416;25.598;2022-08-19T11:03:11;97954.22;;;37.36;27.15
9091;BME280;4581;42.416;25.598;2022-08-19T11:05:38;97926.97;;;37.40;28.15
9091;BME280;4581;42.416;25.598;2022-08-19T11:08:07;97931.44;;;37.57;27.85
9091;BME280;4581;42.416;25.598;2022-08-19T11:10:51;97923.75;;;37.73;28.77
9091;BME280;4581;42.416;25.598;2022-08-19T11:13:21;97948.84;;;37.97;26.87
9091;BME280;4581;42.416;25.598;2022-08-19T11:16:19;97963.59;;;38.29;27.11
9091;BME280;4581;42.416;25.598;2022-08-19T11:18:52;97962.31;;;38.42;25.28
9091;BME280;4581;42.416;25.598;2022-08-19T11:21:29;97949.09;;;38.08;26.38
9091;BME280;4581;42.416;25.598;2022-08-19T11:24:02;97933.97;;;37.62;26.88
9091;BME280;4581;42.416;25.598;2022-08-19T11:26:30;97938.88;;;37.33;26.87
9091;BME280;4581;42.416;25.598;2022-08-19T11:28:58;97932.19;;;37.38;28.19
9091;BME280;4581;42.416;25.598;2022-08-19T11:31:29;97935.91;;;37.77;28.22
9091;BME280;4581;42.416;25.598;2022-08-19T11:34:04;97935.59;;;37.98;28.10
9091;BME280;4581;42.416;25.598;2022-08-19T11:36:32;97916.00;;;38.24;27.18
9091;BME280;4581;42.416;25.598;2022-08-19T11:38:59;97945.53;;;38.11;25.47
9091;BME280;4581;42.416;25.598;2022-08-19T11:41:26;97892.59;;;38.20;25.32
9091;BME280;4581;42.416;25.598;2022-08-19T11:43:53;97936.47;;;38.82;26.08
9091;BME280;4581;42.416;25.598;2022-08-19T11:46:26;97928.91;;;39.09;25.92
9091;BME280;4581;42.416;25.598;2022-08-19T11:48:57;97912.03;;;39.12;25.03
9091;BME280;4581;42.416;25.598;2022-08-19T11:51:29;97944.97;;;39.05;24.58
9091;BME280;4581;42.416;25.598;2022-08-19T11:53:57;97921.41;;;38.94;24.65
9091;BME280;4581;42.416;25.598;2022-08-19T11:56:28;97921.88;;;38.76;25.23
9091;BME280;4581;42.416;25.598;2022-08-19T11:58:55;97916.94;;;38.70;26.02
9091;BME280;4581;42.416;25.598;2022-08-19T12:01:26;97914.16;;;38.51;27.05
9091;BME280;4581;42.416;25.598;2022-08-19T12:03:54;97928.75;;;38.56;26.00
9091;BME280;4581;42.416;25.598;2022-08-19T12:06:28;97939.88;;;38.30;25.77
9091;BME280;4581;42.416;25.598;2022-08-19T12:08:57;97913.13;;;38.20;26.26
9091;BME280;4581;42.416;25.598;2022-08-19T12:11:24;97899.56;;;38.26;25.94
9091;BME280;4581;42.416;25.598;2022-08-19T12:13:52;97903.19;;;38.46;25.75
9091;BME280;4581;42.416;25.598;2022-08-19T12:16:22;97932.03;;;38.58;24.97
9091;BME280;4581;42.416;25.598;2022-08-19T12:18:50;97917.88;;;38.77;25.57
9091;BME280;4581;42.416;25.598;2022-08-19T12:21:22;97918.63;;;38.74;25.27
9091;BME280;4581;42.416;25.598;2022-08-19T12:23:52;97894.69;;;37.34;25.50
9091;BME280;4581;42.416;25.598;2022-08-19T12:26:21;97889.03;;;37.49;26.77
9091;BME280;4581;42.416;25.598;2022-08-19T12:28:49;97913.53;;;37.84;25.66
9091;BME280;4581;42.416;25.598;2022-08-19T12:31:16;97919.09;;;37.80;25.71
9091;BME280;4581;42.416;25.598;2022-08-19T12:33:46;97916.09;;;37.54;26.04
9091;BME280;4581;42.416;25.598;2022-08-19T12:36:14;97899.06;;;37.31;26.89
9091;BME280;4581;42.416;25.598;2022-08-19T12:38:42;97899.38;;;37.45;27.74
9091;BME280;4581;42.416;25.598;2022-08-19T12:41:13;97900.66;;;37.48;26.80
9091;BME280;4581;42.416;25.598;2022-08-19T12:43:41;97906.28;;;37.48;26.44
9091;BME280;4581;42.416;25.598;2022-08-19T12:46:13;97877.81;;;37.34;26.43
9091;BME280;4581;42.416;25.598;2022-08-19T12:48:43;97872.84;;;36.96;27.23
9091;BME280;4581;42.416;25.598;2022-08-19T12:51:16;97896.09;;;36.77;28.26
9091;BME280;4581;42.416;25.598;2022-08-19T12:53:47;97893.94;;;36.71;28.21
9091;BME280;4581;42.416;25.598;2022-08-19T12:56:14;97865.00;;;36.70;27.33
9091;BME280;4581;42.416;25.598;2022-08-19T12:58:42;97893.53;;;36.88;27.59
9091;BME280;4581;42.416;25.598;2022-08-19T13:01:17;97895.56;;;37.03;27.79
9091;BME280;4581;42.416;25.598;2022-08-19T13:03:50;97898.53;;;36.94;27.86
9091;BME280;4581;42.416;25.598;2022-08-19T13:06:19;97895.44;;;36.68;28.50
9091;BME280;4581;42.416;25.598;2022-08-19T13:08:46;97883.31;;;36.64;28.11
9091;BME280;4581;42.416;25.598;2022-08-19T13:11:17;97883.34;;;36.52;28.25
9091;BME280;4581;42.416;25.598;2022-08-19T13:13:48;97880.09;;;36.34;28.05
9091;BME280;4581;42.416;25.598;2022-08-19T13:16:16;97886.84;;;36.18;28.00
9091;BME280;4581;42.416;25.598;2022-08-19T13:18:45;97848.34;;;35.90;28.52
9091;BME280;4581;42.416;25.598;2022-08-19T13:21:21;97881.94;;;36.15;27.18
9091;BME280;4581;42.416;25.598;2022-08-19T13:23:50;97876.06;;;36.07;27.91
9091;BME280;4581;42.416;25.598;2022-08-19T13:26:17;97855.03;;;35.86;27.71
9091;BME280;4581;42.416;25.598;2022-08-19T13:28:45;97857.72;;;35.82;28.37
9091;BME280;4581;42.416;25.598;2022-08-19T13:31:35;97868.78;;;35.63;28.77
9091;BME280;4581;42.416;25.598;2022-08-19T13:34:45;97872.22;;;35.32;29.71
9091;BME280;4581;42.416;25.598;2022-08-19T13:37:15;97843.03;;;35.09;29.37
9091;BME280;4581;42.416;25.598;2022-08-19T13:39:42;97865.09;;;35.10;29.36